This is the latest recevied weather packets stored in our database for station/object WX9WTF. If no packets are shown the sender has not sent any weather packets the latest 10 day(s).
| Time | Temp. | Humidity | Pressure | Rain* | Wind** | Luminosity | Snow |
|---|---|---|---|---|---|---|---|
| 1777680989 | 16.67° C | 38% | 1016.7 hPa | 0 mm | - | 44 W/m² | - |
| 1777680687 | 16.67° C | 36% | 1016.8 hPa | 0 mm | - | 50 W/m² | - |
| 1777680385 | 16.67° C | 34% | 1016.7 hPa | 0 mm | - | 53 W/m² | - |
| 1777680082 | 16.67° C | 36% | 1016.8 hPa | 0 mm | - | 54 W/m² | - |
| 1777679778 | 17.22° C | 36% | 1016.5 hPa | 0 mm | - | 90 W/m² | - |
| 1777679474 | 17.22° C | 36% | 1016.5 hPa | 0 mm | - | 90 W/m² | - |
| 1777679170 | 17.22° C | 38% | 1016.5 hPa | 0 mm | - | 93 W/m² | - |
| 1777678867 | 17.22° C | 36% | 1016.5 hPa | 0 mm | - | 80 W/m² | - |
| 1777678565 | 17.22° C | 39% | 1016.7 hPa | 0 mm | - | 82 W/m² | - |
| 1777678262 | 17.22° C | 37% | 1016.6 hPa | 0 mm | - | 77 W/m² | - |
| 1777677958 | 17.22° C | 37% | 1016.5 hPa | 0 mm | - | 79 W/m² | - |
| 1777677655 | 17.22° C | 35% | 1016.4 hPa | 0 mm | - | 74 W/m² | - |
| 1777677353 | 17.22° C | 35% | 1016.6 hPa | 0 mm | - | 75 W/m² | - |
| 1777677051 | 17.78° C | 34% | 1016.4 hPa | 0 mm | - | 229 W/m² | - |
| 1777676750 | 17.78° C | 34% | 1016.5 hPa | 0 mm | - | 81 W/m² | - |
| 1777676447 | 17.78° C | 34% | 1016.5 hPa | 0 mm | - | 265 W/m² | - |
| 1777676144 | 18.33° C | 34% | 1016.6 hPa | 0 mm | - | 196 W/m² | - |
| 1777675840 | 17.78° C | 34% | 1016.5 hPa | 0 mm | - | 303 W/m² | - |
| 1777675538 | 17.78° C | 34% | 1016.6 hPa | 0 mm | - | 309 W/m² | - |
| 1777675235 | 17.22° C | 37% | 1016.8 hPa | 0 mm | - | 343 W/m² | - |
| 1777674932 | 18.33° C | 40% | 1016.8 hPa | 0 mm | - | 58 W/m² | - |
| 1777674628 | 17.78° C | 37% | 1016.9 hPa | 0 mm | - | 417 W/m² | - |
| 1777674325 | 16.67° C | 40% | 1016.6 hPa | 0 mm | - | 153 W/m² | - |
| 1777674022 | 16.67° C | 40% | 1016.9 hPa | 0 mm | - | 128 W/m² | - |
| 1777673718 | 16.67° C | 38% | 1016.9 hPa | 0 mm | - | 122 W/m² | - |
* Rain latest hour (hover to see other rain measurements)
** Current wind speed in m/s (hover to see current wind gust speed)